Wilson Maas — 8PSZ — position and weather

sailwx.info

Track history (hours):
 
Tides and Currents Weather Stations Pressure Air Temp Water Temp Dewpoint Dewpoint Depression Visibility Wind Speed Wind Dir Waves Ship Positions

Wilson Maas

Last reported at 2014-Dec-20 00:12 UTC. Time now 2014-Dec-20 04:25 UTC.
Position N 59°18' E 005°19'.

Length 78 m; draft 3.8 m.

Type: Cargo ship. MMSI: 314217000.

Date/timePositionNaut miles runAvg speedWind from/ knotsBaromVisibWave heightAir tempDewpointWater temp
2014-Dec-20 00:12N 59°18' E 005°19'6 9.2
2014-Dec-19 23:31N 59°12' E 005°21'5 5.4
2014-Dec-19 22:34N 59°07' E 005°26'8 7.6
2014-Dec-19 21:34N 59°13' E 005°36'9 8.9
2014-Dec-19 20:33N 59°19' E 005°50'9 9.3
2014-Dec-19 19:33N 59°24' E 006°05'8 0.2
2014-Dec-18 04:18N 59°30' E 006°15'7 9.5
2014-Dec-18 03:33N 59°24' E 006°06'1010.4
2014-Dec-18 02:33N 59°18' E 005°49'1010.2
2014-Dec-18 01:33N 59°11' E 005°35'9 9.2
2014-Dec-18 00:34N 59°06' E 005°20'9 9.2
2014-Dec-17 23:33N 59°11' E 005°04'5 0.2
2014-Dec-16 21:15N 59°15' E 005°00'4 6.5
2014-Dec-16 20:33N 59°11' E 005°04'6 5.8
2014-Dec-16 19:33N 59°07' E 005°12'8 7.9
2014-Dec-16 18:33N 59°07' E 005°27'8 8.2
2014-Dec-16 17:34N 59°01' E 005°39'6 6.3
2014-Dec-16 16:34N 58°57' E 005°47'5 5.1
2014-Dec-16 15:31N 58°51' E 005°45'0 0.0
2014-Dec-16 14:31N 58°51' E 005°45'0 0.0
2014-Dec-16 13:31N 58°51' E 005°45'0 0.0
2014-Dec-16 12:31N 58°51' E 005°45'0 0.0
2014-Dec-16 11:31N 58°51' E 005°45'0 0.0
2014-Dec-16 10:31N 58°51' E 005°45'0 0.0
2014-Dec-16 09:31N 58°51' E 005°45'0 0.0
2014-Dec-16 08:31N 58°51' E 005°45'0 0.0
2014-Dec-16 07:31N 58°51' E 005°45'0 0.0
2014-Dec-16 06:32N 58°51' E 005°45'0 0.0
2014-Dec-16 05:32N 58°51' E 005°45'0 0.0
2014-Dec-16 04:20N 58°51' E 005°45'0 0.0
2014-Dec-16 03:32N 58°51' E 005°45'0 0.0
2014-Dec-16 02:08N 58°51' E 005°45'0 0.0
2014-Dec-16 01:08N 58°51' E 005°45'0 0.0
2014-Dec-15 23:31N 58°51' E 005°45'0 0.0
2014-Dec-15 22:31N 58°51' E 005°45'0 0.0
2014-Dec-15 21:31N 58°51' E 005°45'0 0.0
2014-Dec-15 20:31N 58°51' E 005°45'2 1.8
2014-Dec-15 19:33N 58°53' E 005°45'9 8.8
2014-Dec-15 18:33N 59°02' E 005°44'9 9.3
2014-Dec-15 17:33N 59°06' E 005°27'10 9.5
2014-Dec-15 16:33N 59°02' E 005°11'6 5.3
2014-Dec-15 15:28N 58°56' E 005°08'10 7.3
2014-Dec-15 14:09N 58°47' E 005°14'21 8.0
2014-Dec-15 11:31N 58°29' E 005°35'8 8.6
2014-Dec-15 10:33N 58°22' E 005°44'8 8.5
2014-Dec-15 09:33N 58°16' E 005°54'8 8.3
2014-Dec-15 08:33N 58°09' E 006°04'235 9.0
2014-Dec-14 06:21N 54°16' E 005°14'8 9.4
2014-Dec-14 05:28N 54°11' E 005°03'9 9.6
2014-Dec-14 04:33N 54°03' E 004°57'11 9.7
2014-Dec-14 03:24N 53°52' E 004°55'19 9.8
2014-Dec-14 01:29N 53°33' E 004°48'1010.1
2014-Dec-14 00:28N 53°24' E 004°42'2310.7
2014-Dec-13 22:19N 53°03' E 004°25'811.2
2014-Dec-13 21:33N 52°55' E 004°19'1111.2
2014-Dec-13 20:33N 52°46' E 004°10'1111.4
2014-Dec-13 19:33N 52°36' E 003°60'1411.1
2014-Dec-13 18:18N 52°23' E 003°53'811.1
2014-Dec-13 17:33N 52°14' E 003°53'1110.6
2014-Dec-13 16:33N 52°04' E 003°58'1111.1
2014-Dec-13 15:33N 51°57' E 004°11'9 8.7
2014-Dec-13 14:33N 51°54' E 004°25'0 0.1
2014-Dec-13 13:32N 51°55' E 004°25'0 0.0
2014-Dec-13 12:26N 51°55' E 004°25'0 0.0
2014-Dec-13 11:32N 51°55' E 004°25'0 0.0
2014-Dec-13 10:32N 51°55' E 004°25'0 0.0
2014-Dec-13 09:32N 51°55' E 004°25'0 0.0
2014-Dec-13 08:32N 51°55' E 004°25'0 0.0
2014-Dec-13 07:32N 51°55' E 004°25'0 0.0
2014-Dec-13 06:29N 51°55' E 004°25'0 0.0
2014-Dec-13 05:32N 51°55' E 004°25'0 0.0
2014-Dec-13 04:32N 51°55' E 004°25'0 0.0
2014-Dec-13 03:32N 51°55' E 004°25'0 0.0
2014-Dec-13 02:32N 51°55' E 004°25'0 0.0
2014-Dec-13 01:32N 51°55' E 004°25'0 0.0
2014-Dec-13 00:32N 51°55' E 004°25'0 0.0
2014-Dec-12 23:32N 51°55' E 004°25'0 0.0
2014-Dec-12 22:32N 51°55' E 004°25'0 0.0
2014-Dec-12 21:32N 51°55' E 004°25'0 0.0
2014-Dec-12 20:32N 51°55' E 004°25'0 0.2
2014-Dec-12 19:32N 51°54' E 004°25'2 2.1
2014-Dec-12 18:33N 51°54' E 004°28'0 0.0
2014-Dec-12 17:33N 51°54' E 004°28'0 0.0
2014-Dec-12 16:33N 51°54' E 004°28'0 0.0
2014-Dec-12 15:33N 51°54' E 004°28'0 0.0
2014-Dec-12 14:33N 51°54' E 004°28'0 0.0
2014-Dec-12 13:33N 51°54' E 004°28'0 0.0
2014-Dec-12 12:33N 51°54' E 004°28'0 0.0
2014-Dec-12 11:33N 51°54' E 004°28'0 0.0
2014-Dec-12 10:33N 51°54' E 004°28'0 0.0
2014-Dec-12 09:33N 51°54' E 004°28'0 0.3
2014-Dec-12 08:33N 51°54' E 004°29'8 7.5
2014-Dec-12 07:33N 51°51' E 004°40'8 8.5
2014-Dec-12 06:33N 51°49' E 004°53'1110.7
2014-Dec-12 05:33N 51°49' E 005°10'9 8.6
2014-Dec-12 04:34N 51°50' E 005°24'6 0.2
2014-Dec-10 23:33N 51°53' E 005°31'7 7.1
2014-Dec-10 22:33N 51°49' E 005°22'7 7.4
2014-Dec-10 21:34N 51°49' E 005°10'9 9.2
2014-Dec-10 20:33N 51°50' E 004°56'1010.4
2014-Dec-10 19:34N 51°49' E 004°39'  
Track history (hours):
 
Tides and Currents Weather Stations Pressure Air Temp Water Temp Dewpoint Dewpoint Depression Visibility Wind Speed Wind Dir Waves Ship Positions

Wilson Maas

Last reported at 2014-Dec-20 00:12 UTC. Time now 2014-Dec-20 04:25 UTC.
Position N 59°18' E 005°19'.

Length 78 m; draft 3.8 m.

Type: Cargo ship. MMSI: 314217000.

Date/timePositionNaut miles runAvg speedWind from/ knotsBaromVisibWave heightAir tempDewpointWater temp
2014-Dec-20 00:12N 59°18' E 005°19'6 9.2
2014-Dec-19 23:31N 59°12' E 005°21'5 5.4
2014-Dec-19 22:34N 59°07' E 005°26'8 7.6
2014-Dec-19 21:34N 59°13' E 005°36'9 8.9
2014-Dec-19 20:33N 59°19' E 005°50'9 9.3
2014-Dec-19 19:33N 59°24' E 006°05'8 0.2
2014-Dec-18 04:18N 59°30' E 006°15'7 9.5
2014-Dec-18 03:33N 59°24' E 006°06'1010.4
2014-Dec-18 02:33N 59°18' E 005°49'1010.2
2014-Dec-18 01:33N 59°11' E 005°35'9 9.2
2014-Dec-18 00:34N 59°06' E 005°20'9 9.2
2014-Dec-17 23:33N 59°11' E 005°04'5 0.2
2014-Dec-16 21:15N 59°15' E 005°00'4 6.5
2014-Dec-16 20:33N 59°11' E 005°04'6 5.8
2014-Dec-16 19:33N 59°07' E 005°12'8 7.9
2014-Dec-16 18:33N 59°07' E 005°27'8 8.2
2014-Dec-16 17:34N 59°01' E 005°39'6 6.3
2014-Dec-16 16:34N 58°57' E 005°47'5 5.1
2014-Dec-16 15:31N 58°51' E 005°45'0 0.0
2014-Dec-16 14:31N 58°51' E 005°45'0 0.0
2014-Dec-16 13:31N 58°51' E 005°45'0 0.0
2014-Dec-16 12:31N 58°51' E 005°45'0 0.0
2014-Dec-16 11:31N 58°51' E 005°45'0 0.0
2014-Dec-16 10:31N 58°51' E 005°45'0 0.0
2014-Dec-16 09:31N 58°51' E 005°45'0 0.0
2014-Dec-16 08:31N 58°51' E 005°45'0 0.0
2014-Dec-16 07:31N 58°51' E 005°45'0 0.0
2014-Dec-16 06:32N 58°51' E 005°45'0 0.0
2014-Dec-16 05:32N 58°51' E 005°45'0 0.0
2014-Dec-16 04:20N 58°51' E 005°45'0 0.0
2014-Dec-16 03:32N 58°51' E 005°45'0 0.0
2014-Dec-16 02:08N 58°51' E 005°45'0 0.0
2014-Dec-16 01:08N 58°51' E 005°45'0 0.0
2014-Dec-15 23:31N 58°51' E 005°45'0 0.0
2014-Dec-15 22:31N 58°51' E 005°45'0 0.0
2014-Dec-15 21:31N 58°51' E 005°45'0 0.0
2014-Dec-15 20:31N 58°51' E 005°45'2 1.8
2014-Dec-15 19:33N 58°53' E 005°45'9 8.8
2014-Dec-15 18:33N 59°02' E 005°44'9 9.3
2014-Dec-15 17:33N 59°06' E 005°27'10 9.5
2014-Dec-15 16:33N 59°02' E 005°11'6 5.3
2014-Dec-15 15:28N 58°56' E 005°08'10 7.3
2014-Dec-15 14:09N 58°47' E 005°14'21 8.0
2014-Dec-15 11:31N 58°29' E 005°35'8 8.6
2014-Dec-15 10:33N 58°22' E 005°44'8 8.5
2014-Dec-15 09:33N 58°16' E 005°54'8 8.3
2014-Dec-15 08:33N 58°09' E 006°04'235 9.0
2014-Dec-14 06:21N 54°16' E 005°14'8 9.4
2014-Dec-14 05:28N 54°11' E 005°03'9 9.6
2014-Dec-14 04:33N 54°03' E 004°57'11 9.7
2014-Dec-14 03:24N 53°52' E 004°55'19 9.8
2014-Dec-14 01:29N 53°33' E 004°48'1010.1
2014-Dec-14 00:28N 53°24' E 004°42'2310.7
2014-Dec-13 22:19N 53°03' E 004°25'811.2
2014-Dec-13 21:33N 52°55' E 004°19'1111.2
2014-Dec-13 20:33N 52°46' E 004°10'1111.4
2014-Dec-13 19:33N 52°36' E 003°60'1411.1
2014-Dec-13 18:18N 52°23' E 003°53'811.1
2014-Dec-13 17:33N 52°14' E 003°53'1110.6
2014-Dec-13 16:33N 52°04' E 003°58'1111.1
2014-Dec-13 15:33N 51°57' E 004°11'9 8.7
2014-Dec-13 14:33N 51°54' E 004°25'0 0.1
2014-Dec-13 13:32N 51°55' E 004°25'0 0.0
2014-Dec-13 12:26N 51°55' E 004°25'0 0.0
2014-Dec-13 11:32N 51°55' E 004°25'0 0.0
2014-Dec-13 10:32N 51°55' E 004°25'0 0.0
2014-Dec-13 09:32N 51°55' E 004°25'0 0.0
2014-Dec-13 08:32N 51°55' E 004°25'0 0.0
2014-Dec-13 07:32N 51°55' E 004°25'0 0.0
2014-Dec-13 06:29N 51°55' E 004°25'0 0.0
2014-Dec-13 05:32N 51°55' E 004°25'0 0.0
2014-Dec-13 04:32N 51°55' E 004°25'0 0.0
2014-Dec-13 03:32N 51°55' E 004°25'0 0.0
2014-Dec-13 02:32N 51°55' E 004°25'0 0.0
2014-Dec-13 01:32N 51°55' E 004°25'0 0.0
2014-Dec-13 00:32N 51°55' E 004°25'0 0.0
2014-Dec-12 23:32N 51°55' E 004°25'0 0.0
2014-Dec-12 22:32N 51°55' E 004°25'0 0.0
2014-Dec-12 21:32N 51°55' E 004°25'0 0.0
2014-Dec-12 20:32N 51°55' E 004°25'0 0.2
2014-Dec-12 19:32N 51°54' E 004°25'2 2.1
2014-Dec-12 18:33N 51°54' E 004°28'0 0.0
2014-Dec-12 17:33N 51°54' E 004°28'0 0.0
2014-Dec-12 16:33N 51°54' E 004°28'0 0.0
2014-Dec-12 15:33N 51°54' E 004°28'0 0.0
2014-Dec-12 14:33N 51°54' E 004°28'0 0.0
2014-Dec-12 13:33N 51°54' E 004°28'0 0.0
2014-Dec-12 12:33N 51°54' E 004°28'0 0.0
2014-Dec-12 11:33N 51°54' E 004°28'0 0.0
2014-Dec-12 10:33N 51°54' E 004°28'0 0.0
2014-Dec-12 09:33N 51°54' E 004°28'0 0.3
2014-Dec-12 08:33N 51°54' E 004°29'8 7.5
2014-Dec-12 07:33N 51°51' E 004°40'8 8.5
2014-Dec-12 06:33N 51°49' E 004°53'1110.7
2014-Dec-12 05:33N 51°49' E 005°10'9 8.6
2014-Dec-12 04:34N 51°50' E 005°24'6 0.2
2014-Dec-10 23:33N 51°53' E 005°31'7 7.1
2014-Dec-10 22:33N 51°49' E 005°22'7 7.4
2014-Dec-10 21:34N 51°49' E 005°10'9 9.2
2014-Dec-10 20:33N 51°50' E 004°56'1010.4
2014-Dec-10 19:34N 51°49' E 004°39'  

Dump ship's entire track history